sensor_id;sensor_type;location;lat;lon;timestamp;P1;durP1;ratioP1;P2;durP2;ratioP2
42168;SDS011;27838;43.858;25.974;2024-02-26T00:01:46;21.50;;;14.57;;
42168;SDS011;27838;43.858;25.974;2024-02-26T00:04:12;23.23;;;14.00;;
42168;SDS011;27838;43.858;25.974;2024-02-26T00:06:39;20.65;;;13.82;;
42168;SDS011;27838;43.858;25.974;2024-02-26T00:09:06;22.35;;;13.65;;
42168;SDS011;27838;43.858;25.974;2024-02-26T00:11:34;21.63;;;13.75;;
42168;SDS011;27838;43.858;25.974;2024-02-26T00:14:04;20.98;;;13.05;;
42168;SDS011;27838;43.858;25.974;2024-02-26T00:16:30;21.42;;;13.93;;
42168;SDS011;27838;43.858;25.974;2024-02-26T00:18:57;24.65;;;13.98;;
42168;SDS011;27838;43.858;25.974;2024-02-26T00:21:24;22.80;;;14.63;;
42168;SDS011;27838;43.858;25.974;2024-02-26T00:23:52;23.77;;;15.20;;
42168;SDS011;27838;43.858;25.974;2024-02-26T00:26:19;21.23;;;13.32;;
42168;SDS011;27838;43.858;25.974;2024-02-26T00:28:46;21.88;;;13.68;;
42168;SDS011;27838;43.858;25.974;2024-02-26T00:31:12;28.35;;;14.43;;
42168;SDS011;27838;43.858;25.974;2024-02-26T00:33:39;26.08;;;15.70;;
42168;SDS011;27838;43.858;25.974;2024-02-26T00:36:06;25.85;;;14.23;;
42168;SDS011;27838;43.858;25.974;2024-02-26T00:38:32;26.50;;;14.90;;
42168;SDS011;27838;43.858;25.974;2024-02-26T00:40:59;25.70;;;15.02;;
42168;SDS011;27838;43.858;25.974;2024-02-26T00:43:25;31.77;;;14.45;;
42168;SDS011;27838;43.858;25.974;2024-02-26T00:45:52;26.55;;;14.70;;
42168;SDS011;27838;43.858;25.974;2024-02-26T00:48:18;26.65;;;15.32;;
42168;SDS011;27838;43.858;25.974;2024-02-26T00:50:45;23.88;;;14.43;;
42168;SDS011;27838;43.858;25.974;2024-02-26T00:53:11;28.08;;;15.18;;
42168;SDS011;27838;43.858;25.974;2024-02-26T00:55:38;24.77;;;14.57;;
42168;SDS011;27838;43.858;25.974;2024-02-26T00:58:05;24.13;;;15.48;;
42168;SDS011;27838;43.858;25.974;2024-02-26T01:00:31;36.88;;;15.98;;
42168;SDS011;27838;43.858;25.974;2024-02-26T01:02:58;26.42;;;15.05;;
42168;SDS011;27838;43.858;25.974;2024-02-26T01:05:25;24.05;;;15.43;;
42168;SDS011;27838;43.858;25.974;2024-02-26T01:07:51;27.55;;;14.55;;
42168;SDS011;27838;43.858;25.974;2024-02-26T01:10:18;46.85;;;16.08;;
42168;SDS011;27838;43.858;25.974;2024-02-26T01:12:44;32.20;;;16.17;;
42168;SDS011;27838;43.858;25.974;2024-02-26T01:15:11;22.83;;;14.02;;
42168;SDS011;27838;43.858;25.974;2024-02-26T01:17:37;27.58;;;14.57;;
42168;SDS011;27838;43.858;25.974;2024-02-26T01:20:04;21.75;;;13.40;;
42168;SDS011;27838;43.858;25.974;2024-02-26T01:22:31;23.52;;;13.43;;
42168;SDS011;27838;43.858;25.974;2024-02-26T01:24:58;25.27;;;14.23;;
42168;SDS011;27838;43.858;25.974;2024-02-26T01:27:24;24.48;;;12.80;;
42168;SDS011;27838;43.858;25.974;2024-02-26T01:29:52;24.13;;;13.65;;
42168;SDS011;27838;43.858;25.974;2024-02-26T01:32:19;23.70;;;12.88;;
42168;SDS011;27838;43.858;25.974;2024-02-26T01:34:45;21.45;;;13.38;;
42168;SDS011;27838;43.858;25.974;2024-02-26T01:37:12;20.98;;;12.68;;
42168;SDS011;27838;43.858;25.974;2024-02-26T01:39:38;22.77;;;11.98;;
42168;SDS011;27838;43.858;25.974;2024-02-26T01:42:06;17.98;;;11.13;;
42168;SDS011;27838;43.858;25.974;2024-02-26T01:44:33;24.05;;;11.93;;
42168;SDS011;27838;43.858;25.974;2024-02-26T01:47:00;19.73;;;11.75;;
42168;SDS011;27838;43.858;25.974;2024-02-26T01:49:28;18.17;;;11.50;;
42168;SDS011;27838;43.858;25.974;2024-02-26T01:51:55;15.82;;;10.48;;
42168;SDS011;27838;43.858;25.974;2024-02-26T01:54:22;19.13;;;11.60;;
42168;SDS011;27838;43.858;25.974;2024-02-26T01:56:49;20.67;;;11.88;;
42168;SDS011;27838;43.858;25.974;2024-02-26T01:59:16;17.20;;;11.32;;
42168;SDS011;27838;43.858;25.974;2024-02-26T02:01:44;20.80;;;10.73;;
42168;SDS011;27838;43.858;25.974;2024-02-26T02:04:13;18.00;;;10.75;;
42168;SDS011;27838;43.858;25.974;2024-02-26T02:06:41;20.80;;;10.82;;
42168;SDS011;27838;43.858;25.974;2024-02-26T02:09:10;17.50;;;10.45;;
42168;SDS011;27838;43.858;25.974;2024-02-26T02:11:37;22.70;;;11.93;;
42168;SDS011;27838;43.858;25.974;2024-02-26T02:14:04;20.38;;;11.57;;
42168;SDS011;27838;43.858;25.974;2024-02-26T02:16:30;18.70;;;11.98;;
42168;SDS011;27838;43.858;25.974;2024-02-26T02:18:58;25.17;;;11.98;;
42168;SDS011;27838;43.858;25.974;2024-02-26T02:21:24;19.80;;;12.05;;
42168;SDS011;27838;43.858;25.974;2024-02-26T02:23:51;19.48;;;11.80;;
42168;SDS011;27838;43.858;25.974;2024-02-26T02:26:18;16.10;;;11.45;;
42168;SDS011;27838;43.858;25.974;2024-02-26T02:28:45;23.40;;;14.45;;
42168;SDS011;27838;43.858;25.974;2024-02-26T02:31:13;23.17;;;14.63;;
42168;SDS011;27838;43.858;25.974;2024-02-26T02:33:40;26.63;;;17.50;;
42168;SDS011;27838;43.858;25.974;2024-02-26T02:36:07;26.38;;;16.58;;
42168;SDS011;27838;43.858;25.974;2024-02-26T02:38:35;26.75;;;15.68;;
42168;SDS011;27838;43.858;25.974;2024-02-26T02:41:03;23.10;;;13.95;;
42168;SDS011;27838;43.858;25.974;2024-02-26T02:43:30;22.88;;;14.95;;
42168;SDS011;27838;43.858;25.974;2024-02-26T02:45:56;33.45;;;16.63;;
42168;SDS011;27838;43.858;25.974;2024-02-26T02:48:23;28.50;;;17.77;;
42168;SDS011;27838;43.858;25.974;2024-02-26T02:50:49;46.17;;;21.83;;
42168;SDS011;27838;43.858;25.974;2024-02-26T02:53:16;43.20;;;21.75;;
42168;SDS011;27838;43.858;25.974;2024-02-26T02:55:43;34.63;;;18.17;;
42168;SDS011;27838;43.858;25.974;2024-02-26T02:58:10;35.63;;;16.48;;
42168;SDS011;27838;43.858;25.974;2024-02-26T03:00:36;28.98;;;16.33;;
42168;SDS011;27838;43.858;25.974;2024-02-26T03:03:03;26.95;;;15.52;;
42168;SDS011;27838;43.858;25.974;2024-02-26T03:05:30;28.45;;;13.02;;
42168;SDS011;27838;43.858;25.974;2024-02-26T03:07:56;32.17;;;14.18;;
42168;SDS011;27838;43.858;25.974;2024-02-26T03:10:23;26.02;;;14.93;;
42168;SDS011;27838;43.858;25.974;2024-02-26T03:12:50;18.55;;;13.25;;
42168;SDS011;27838;43.858;25.974;2024-02-26T03:15:17;19.70;;;14.30;;
42168;SDS011;27838;43.858;25.974;2024-02-26T03:17:43;25.17;;;13.50;;
42168;SDS011;27838;43.858;25.974;2024-02-26T03:20:10;24.55;;;13.73;;
42168;SDS011;27838;43.858;25.974;2024-02-26T03:22:38;22.45;;;14.52;;
42168;SDS011;27838;43.858;25.974;2024-02-26T03:25:05;20.30;;;13.40;;
42168;SDS011;27838;43.858;25.974;2024-02-26T03:27:32;25.83;;;14.20;;
42168;SDS011;27838;43.858;25.974;2024-02-26T03:29:59;24.92;;;14.10;;
42168;SDS011;27838;43.858;25.974;2024-02-26T03:32:25;24.27;;;14.05;;
42168;SDS011;27838;43.858;25.974;2024-02-26T03:34:52;23.27;;;13.82;;
42168;SDS011;27838;43.858;25.974;2024-02-26T03:37:19;19.63;;;13.55;;
42168;SDS011;27838;43.858;25.974;2024-02-26T03:39:46;23.90;;;13.85;;
42168;SDS011;27838;43.858;25.974;2024-02-26T03:42:12;21.08;;;13.38;;
42168;SDS011;27838;43.858;25.974;2024-02-26T03:44:39;17.85;;;13.23;;
42168;SDS011;27838;43.858;25.974;2024-02-26T03:47:05;21.38;;;13.05;;
42168;SDS011;27838;43.858;25.974;2024-02-26T03:49:32;20.55;;;12.93;;
42168;SDS011;27838;43.858;25.974;2024-02-26T03:51:58;19.70;;;12.30;;
42168;SDS011;27838;43.858;25.974;2024-02-26T03:54:25;19.33;;;12.90;;
42168;SDS011;27838;43.858;25.974;2024-02-26T03:56:54;21.67;;;12.68;;
42168;SDS011;27838;43.858;25.974;2024-02-26T03:59:21;23.48;;;13.30;;
42168;SDS011;27838;43.858;25.974;2024-02-26T04:01:49;24.48;;;13.50;;
42168;SDS011;27838;43.858;25.974;2024-02-26T04:04:16;21.90;;;13.52;;
42168;SDS011;27838;43.858;25.974;2024-02-26T04:06:46;26.13;;;13.05;;
42168;SDS011;27838;43.858;25.974;2024-02-26T04:09:13;20.35;;;12.10;;
42168;SDS011;27838;43.858;25.974;2024-02-26T04:11:40;23.95;;;12.20;;
42168;SDS011;27838;43.858;25.974;2024-02-26T04:14:08;23.13;;;11.93;;
42168;SDS011;27838;43.858;25.974;2024-02-26T04:16:36;23.20;;;12.68;;
42168;SDS011;27838;43.858;25.974;2024-02-26T04:19:03;19.35;;;12.73;;
42168;SDS011;27838;43.858;25.974;2024-02-26T04:21:29;20.95;;;13.07;;
42168;SDS011;27838;43.858;25.974;2024-02-26T04:23:56;18.45;;;12.63;;
42168;SDS011;27838;43.858;25.974;2024-02-26T04:26:26;20.30;;;12.55;;
42168;SDS011;27838;43.858;25.974;2024-02-26T04:28:52;22.55;;;12.80;;
42168;SDS011;27838;43.858;25.974;2024-02-26T04:31:19;18.88;;;12.48;;
42168;SDS011;27838;43.858;25.974;2024-02-26T04:33:45;16.88;;;11.73;;
42168;SDS011;27838;43.858;25.974;2024-02-26T04:36:15;16.38;;;11.38;;
42168;SDS011;27838;43.858;25.974;2024-02-26T04:38:42;17.17;;;11.35;;
42168;SDS011;27838;43.858;25.974;2024-02-26T04:41:09;17.95;;;11.77;;
42168;SDS011;27838;43.858;25.974;2024-02-26T04:43:36;20.15;;;12.15;;
42168;SDS011;27838;43.858;25.974;2024-02-26T04:46:07;18.13;;;11.88;;
42168;SDS011;27838;43.858;25.974;2024-02-26T04:48:34;16.25;;;11.82;;
42168;SDS011;27838;43.858;25.974;2024-02-26T04:51:01;18.05;;;11.52;;
42168;SDS011;27838;43.858;25.974;2024-02-26T04:53:29;22.77;;;11.80;;
42168;SDS011;27838;43.858;25.974;2024-02-26T04:55:55;20.67;;;13.38;;
42168;SDS011;27838;43.858;25.974;2024-02-26T04:58:22;28.20;;;19.90;;
42168;SDS011;27838;43.858;25.974;2024-02-26T05:00:48;28.90;;;18.58;;
42168;SDS011;27838;43.858;25.974;2024-02-26T05:03:15;24.73;;;16.48;;
42168;SDS011;27838;43.858;25.974;2024-02-26T05:05:42;31.35;;;17.13;;
42168;SDS011;27838;43.858;25.974;2024-02-26T05:08:10;23.08;;;14.18;;
42168;SDS011;27838;43.858;25.974;2024-02-26T05:10:37;23.73;;;14.02;;
42168;SDS011;27838;43.858;25.974;2024-02-26T05:13:06;26.30;;;13.90;;
42168;SDS011;27838;43.858;25.974;2024-02-26T05:15:32;27.35;;;15.98;;
42168;SDS011;27838;43.858;25.974;2024-02-26T05:17:59;30.63;;;15.82;;
42168;SDS011;27838;43.858;25.974;2024-02-26T05:20:26;24.88;;;13.13;;
42168;SDS011;27838;43.858;25.974;2024-02-26T05:22:53;28.58;;;14.73;;
42168;SDS011;27838;43.858;25.974;2024-02-26T05:25:19;19.27;;;13.32;;
42168;SDS011;27838;43.858;25.974;2024-02-26T05:27:46;27.98;;;12.40;;
42168;SDS011;27838;43.858;25.974;2024-02-26T05:30:13;19.98;;;11.40;;
42168;SDS011;27838;43.858;25.974;2024-02-26T05:32:39;17.05;;;10.45;;
42168;SDS011;27838;43.858;25.974;2024-02-26T05:35:06;23.58;;;12.55;;
42168;SDS011;27838;43.858;25.974;2024-02-26T05:37:33;30.63;;;11.85;;
42168;SDS011;27838;43.858;25.974;2024-02-26T05:40:00;24.35;;;12.20;;
42168;SDS011;27838;43.858;25.974;2024-02-26T05:42:29;21.38;;;12.80;;
42168;SDS011;27838;43.858;25.974;2024-02-26T05:44:56;23.42;;;13.15;;
42168;SDS011;27838;43.858;25.974;2024-02-26T05:47:22;19.38;;;12.32;;
42168;SDS011;27838;43.858;25.974;2024-02-26T05:49:49;24.35;;;12.93;;
42168;SDS011;27838;43.858;25.974;2024-02-26T05:52:15;24.42;;;13.55;;
42168;SDS011;27838;43.858;25.974;2024-02-26T05:54:42;22.73;;;13.15;;
42168;SDS011;27838;43.858;25.974;2024-02-26T05:57:08;20.33;;;13.15;;
42168;SDS011;27838;43.858;25.974;2024-02-26T05:59:36;24.38;;;14.25;;
42168;SDS011;27838;43.858;25.974;2024-02-26T06:02:03;32.03;;;15.93;;
42168;SDS011;27838;43.858;25.974;2024-02-26T06:04:29;27.00;;;13.65;;
42168;SDS011;27838;43.858;25.974;2024-02-26T06:06:56;31.30;;;13.98;;
42168;SDS011;27838;43.858;25.974;2024-02-26T06:09:22;21.77;;;13.77;;
42168;SDS011;27838;43.858;25.974;2024-02-26T06:11:49;33.70;;;15.15;;
42168;SDS011;27838;43.858;25.974;2024-02-26T06:14:15;26.77;;;15.43;;
42168;SDS011;27838;43.858;25.974;2024-02-26T06:16:43;21.88;;;14.50;;
42168;SDS011;27838;43.858;25.974;2024-02-26T06:19:10;19.90;;;13.52;;
42168;SDS011;27838;43.858;25.974;2024-02-26T06:21:37;18.45;;;13.25;;
42168;SDS011;27838;43.858;25.974;2024-02-26T06:24:03;25.00;;;15.10;;
42168;SDS011;27838;43.858;25.974;2024-02-26T06:26:30;25.45;;;14.90;;
42168;SDS011;27838;43.858;25.974;2024-02-26T06:28:58;24.02;;;14.73;;
42168;SDS011;27838;43.858;25.974;2024-02-26T06:31:25;24.48;;;15.30;;
42168;SDS011;27838;43.858;25.974;2024-02-26T06:33:53;23.70;;;16.10;;
42168;SDS011;27838;43.858;25.974;2024-02-26T06:36:20;30.38;;;16.95;;
42168;SDS011;27838;43.858;25.974;2024-02-26T06:38:47;30.70;;;16.65;;
42168;SDS011;27838;43.858;25.974;2024-02-26T06:41:14;22.88;;;14.60;;
42168;SDS011;27838;43.858;25.974;2024-02-26T06:43:40;26.13;;;15.73;;
42168;SDS011;27838;43.858;25.974;2024-02-26T06:46:07;25.95;;;15.50;;
42168;SDS011;27838;43.858;25.974;2024-02-26T06:48:33;27.35;;;15.45;;
42168;SDS011;27838;43.858;25.974;2024-02-26T06:51:01;29.10;;;15.93;;
42168;SDS011;27838;43.858;25.974;2024-02-26T06:53:29;35.25;;;16.63;;
42168;SDS011;27838;43.858;25.974;2024-02-26T06:55:55;29.67;;;16.85;;
42168;SDS011;27838;43.858;25.974;2024-02-26T06:58:21;28.00;;;15.23;;
42168;SDS011;27838;43.858;25.974;2024-02-26T07:00:47;30.70;;;15.13;;
42168;SDS011;27838;43.858;25.974;2024-02-26T07:03:14;23.92;;;15.45;;
42168;SDS011;27838;43.858;25.974;2024-02-26T07:05:41;25.17;;;14.77;;
42168;SDS011;27838;43.858;25.974;2024-02-26T07:08:09;30.02;;;16.23;;
42168;SDS011;27838;43.858;25.974;2024-02-26T07:10:36;24.08;;;14.60;;
42168;SDS011;27838;43.858;25.974;2024-02-26T07:13:02;34.60;;;17.85;;
42168;SDS011;27838;43.858;25.974;2024-02-26T07:15:29;33.17;;;16.67;;
42168;SDS011;27838;43.858;25.974;2024-02-26T07:17:55;33.40;;;18.23;;
42168;SDS011;27838;43.858;25.974;2024-02-26T07:20:27;37.45;;;17.88;;
42168;SDS011;27838;43.858;25.974;2024-02-26T07:22:54;31.00;;;17.23;;
42168;SDS011;27838;43.858;25.974;2024-02-26T07:25:21;33.95;;;17.17;;
42168;SDS011;27838;43.858;25.974;2024-02-26T07:27:49;34.25;;;16.55;;
42168;SDS011;27838;43.858;25.974;2024-02-26T07:30:16;27.85;;;17.10;;
42168;SDS011;27838;43.858;25.974;2024-02-26T07:32:42;29.27;;;16.02;;
42168;SDS011;27838;43.858;25.974;2024-02-26T07:35:09;39.97;;;20.30;;
42168;SDS011;27838;43.858;25.974;2024-02-26T07:37:36;31.98;;;17.83;;
42168;SDS011;27838;43.858;25.974;2024-02-26T07:40:03;32.55;;;17.38;;
42168;SDS011;27838;43.858;25.974;2024-02-26T07:42:30;39.88;;;18.85;;
42168;SDS011;27838;43.858;25.974;2024-02-26T07:44:57;43.65;;;19.08;;
42168;SDS011;27838;43.858;25.974;2024-02-26T07:47:24;38.92;;;19.10;;
42168;SDS011;27838;43.858;25.974;2024-02-26T07:49:50;38.05;;;18.67;;
42168;SDS011;27838;43.858;25.974;2024-02-26T07:52:19;31.75;;;17.83;;
42168;SDS011;27838;43.858;25.974;2024-02-26T07:54:46;37.13;;;17.83;;
42168;SDS011;27838;43.858;25.974;2024-02-26T07:57:13;33.08;;;18.83;;
42168;SDS011;27838;43.858;25.974;2024-02-26T07:59:42;51.33;;;19.05;;
42168;SDS011;27838;43.858;25.974;2024-02-26T08:02:09;41.72;;;17.73;;
42168;SDS011;27838;43.858;25.974;2024-02-26T08:04:36;33.90;;;17.10;;
42168;SDS011;27838;43.858;25.974;2024-02-26T08:07:03;36.25;;;15.75;;
42168;SDS011;27838;43.858;25.974;2024-02-26T08:09:29;35.90;;;17.00;;
42168;SDS011;27838;43.858;25.974;2024-02-26T08:11:56;30.90;;;15.35;;
42168;SDS011;27838;43.858;25.974;2024-02-26T08:14:22;44.72;;;15.88;;
42168;SDS011;27838;43.858;25.974;2024-02-26T08:16:49;37.40;;;16.30;;
42168;SDS011;27838;43.858;25.974;2024-02-26T08:19:15;32.97;;;14.52;;
42168;SDS011;27838;43.858;25.974;2024-02-26T08:21:42;34.13;;;17.00;;
42168;SDS011;27838;43.858;25.974;2024-02-26T08:24:09;33.58;;;15.52;;
42168;SDS011;27838;43.858;25.974;2024-02-26T08:26:36;37.90;;;17.23;;
42168;SDS011;27838;43.858;25.974;2024-02-26T08:29:02;42.33;;;21.77;;
42168;SDS011;27838;43.858;25.974;2024-02-26T08:31:29;35.17;;;18.63;;
42168;SDS011;27838;43.858;25.974;2024-02-26T08:33:55;26.17;;;14.23;;
42168;SDS011;27838;43.858;25.974;2024-02-26T08:36:23;33.70;;;13.95;;
42168;SDS011;27838;43.858;25.974;2024-02-26T08:38:49;34.40;;;15.60;;
42168;SDS011;27838;43.858;25.974;2024-02-26T08:41:16;34.53;;;14.73;;
42168;SDS011;27838;43.858;25.974;2024-02-26T08:43:43;30.05;;;13.90;;
42168;SDS011;27838;43.858;25.974;2024-02-26T08:46:09;31.33;;;13.63;;
42168;SDS011;27838;43.858;25.974;2024-02-26T08:48:36;31.73;;;14.07;;
42168;SDS011;27838;43.858;25.974;2024-02-26T08:51:06;41.45;;;14.65;;
42168;SDS011;27838;43.858;25.974;2024-02-26T08:53:33;37.70;;;13.20;;
42168;SDS011;27838;43.858;25.974;2024-02-26T08:56:00;30.00;;;12.73;;
42168;SDS011;27838;43.858;25.974;2024-02-26T08:58:27;25.52;;;12.88;;
42168;SDS011;27838;43.858;25.974;2024-02-26T09:00:54;32.00;;;13.13;;
42168;SDS011;27838;43.858;25.974;2024-02-26T09:03:21;30.02;;;12.90;;
42168;SDS011;27838;43.858;25.974;2024-02-26T09:05:48;27.23;;;12.40;;
42168;SDS011;27838;43.858;25.974;2024-02-26T09:08:15;27.73;;;12.75;;
42168;SDS011;27838;43.858;25.974;2024-02-26T09:10:41;22.73;;;11.63;;
42168;SDS011;27838;43.858;25.974;2024-02-26T09:13:08;28.88;;;12.77;;
42168;SDS011;27838;43.858;25.974;2024-02-26T09:15:35;21.17;;;12.07;;
42168;SDS011;27838;43.858;25.974;2024-02-26T09:18:01;20.85;;;12.00;;
42168;SDS011;27838;43.858;25.974;2024-02-26T09:20:28;22.15;;;12.13;;
42168;SDS011;27838;43.858;25.974;2024-02-26T09:22:54;23.08;;;12.55;;
42168;SDS011;27838;43.858;25.974;2024-02-26T09:25:21;27.00;;;14.18;;
42168;SDS011;27838;43.858;25.974;2024-02-26T09:27:47;22.83;;;11.75;;
42168;SDS011;27838;43.858;25.974;2024-02-26T09:30:14;23.13;;;9.95;;
42168;SDS011;27838;43.858;25.974;2024-02-26T09:32:40;21.65;;;12.65;;
42168;SDS011;27838;43.858;25.974;2024-02-26T09:35:07;17.15;;;10.20;;
42168;SDS011;27838;43.858;25.974;2024-02-26T09:37:34;17.25;;;10.38;;
42168;SDS011;27838;43.858;25.974;2024-02-26T09:40:02;19.75;;;11.18;;
42168;SDS011;27838;43.858;25.974;2024-02-26T09:42:29;20.42;;;11.60;;
42168;SDS011;27838;43.858;25.974;2024-02-26T09:44:57;18.85;;;10.15;;
42168;SDS011;27838;43.858;25.974;2024-02-26T09:47:31;17.73;;;10.10;;
42168;SDS011;27838;43.858;25.974;2024-02-26T09:49:57;14.95;;;10.10;;
42168;SDS011;27838;43.858;25.974;2024-02-26T09:52:27;18.15;;;10.38;;
42168;SDS011;27838;43.858;25.974;2024-02-26T09:54:54;15.65;;;10.95;;
42168;SDS011;27838;43.858;25.974;2024-02-26T09:57:21;19.98;;;10.98;;
42168;SDS011;27838;43.858;25.974;2024-02-26T09:59:49;18.40;;;10.35;;
42168;SDS011;27838;43.858;25.974;2024-02-26T10:02:19;17.00;;;10.93;;
42168;SDS011;27838;43.858;25.974;2024-02-26T10:04:47;15.98;;;11.40;;
42168;SDS011;27838;43.858;25.974;2024-02-26T10:07:18;15.20;;;9.88;;
42168;SDS011;27838;43.858;25.974;2024-02-26T10:09:45;20.98;;;10.73;;
42168;SDS011;27838;43.858;25.974;2024-02-26T10:12:12;17.38;;;11.52;;
42168;SDS011;27838;43.858;25.974;2024-02-26T10:14:40;23.90;;;12.13;;
42168;SDS011;27838;43.858;25.974;2024-02-26T10:17:07;22.00;;;11.65;;
42168;SDS011;27838;43.858;25.974;2024-02-26T10:19:34;17.73;;;12.27;;
42168;SDS011;27838;43.858;25.974;2024-02-26T10:22:01;20.40;;;11.88;;
42168;SDS011;27838;43.858;25.974;2024-02-26T10:24:29;21.60;;;12.10;;
42168;SDS011;27838;43.858;25.974;2024-02-26T10:26:56;25.17;;;12.23;;
42168;SDS011;27838;43.858;25.974;2024-02-26T10:29:24;19.77;;;11.30;;
42168;SDS011;27838;43.858;25.974;2024-02-26T10:31:51;21.73;;;12.40;;
42168;SDS011;27838;43.858;25.974;2024-02-26T10:34:18;22.45;;;11.15;;
42168;SDS011;27838;43.858;25.974;2024-02-26T10:36:46;20.80;;;12.90;;
42168;SDS011;27838;43.858;25.974;2024-02-26T10:39:12;18.88;;;12.10;;
42168;SDS011;27838;43.858;25.974;2024-02-26T10:41:40;26.17;;;12.18;;
42168;SDS011;27838;43.858;25.974;2024-02-26T10:44:11;19.10;;;11.25;;
42168;SDS011;27838;43.858;25.974;2024-02-26T10:46:40;31.95;;;18.08;;
42168;SDS011;27838;43.858;25.974;2024-02-26T10:49:12;18.02;;;10.32;;
42168;SDS011;27838;43.858;25.974;2024-02-26T10:51:43;24.92;;;12.85;;
42168;SDS011;27838;43.858;25.974;2024-02-26T10:54:12;23.17;;;12.02;;
42168;SDS011;27838;43.858;25.974;2024-02-26T10:56:41;21.38;;;11.85;;
42168;SDS011;27838;43.858;25.974;2024-02-26T10:59:09;25.23;;;12.00;;
42168;SDS011;27838;43.858;25.974;2024-02-26T11:01:36;29.17;;;11.57;;
42168;SDS011;27838;43.858;25.974;2024-02-26T11:04:03;19.67;;;10.65;;
42168;SDS011;27838;43.858;25.974;2024-02-26T11:06:31;26.05;;;13.38;;
42168;SDS011;27838;43.858;25.974;2024-02-26T11:08:59;30.90;;;11.38;;
42168;SDS011;27838;43.858;25.974;2024-02-26T11:11:28;23.45;;;11.52;;
42168;SDS011;27838;43.858;25.974;2024-02-26T11:16:27;22.08;;;13.43;;
42168;SDS011;27838;43.858;25.974;2024-02-26T11:18:56;23.02;;;11.52;;
42168;SDS011;27838;43.858;25.974;2024-02-26T11:21:24;22.45;;;10.98;;
42168;SDS011;27838;43.858;25.974;2024-02-26T11:23:55;28.60;;;13.32;;
42168;SDS011;27838;43.858;25.974;2024-02-26T11:26:22;47.25;;;14.35;;
42168;SDS011;27838;43.858;25.974;2024-02-26T11:28:51;16.75;;;9.73;;
42168;SDS011;27838;43.858;25.974;2024-02-26T11:31:19;22.73;;;11.30;;
42168;SDS011;27838;43.858;25.974;2024-02-26T11:33:52;22.20;;;11.73;;
42168;SDS011;27838;43.858;25.974;2024-02-26T11:36:19;20.63;;;10.50;;
42168;SDS011;27838;43.858;25.974;2024-02-26T11:38:46;26.30;;;11.15;;
42168;SDS011;27838;43.858;25.974;2024-02-26T11:41:16;18.83;;;10.55;;
42168;SDS011;27838;43.858;25.974;2024-02-26T11:43:50;21.50;;;10.73;;
42168;SDS011;27838;43.858;25.974;2024-02-26T11:46:26;20.42;;;11.27;;
42168;SDS011;27838;43.858;25.974;2024-02-26T11:49:03;26.42;;;10.85;;
42168;SDS011;27838;43.858;25.974;2024-02-26T11:51:51;31.90;;;12.70;;
42168;SDS011;27838;43.858;25.974;2024-02-26T11:57:17;20.55;;;9.45;;
42168;SDS011;27838;43.858;25.974;2024-02-26T12:02:45;28.13;;;12.18;;
42168;SDS011;27838;43.858;25.974;2024-02-26T12:05:16;28.70;;;12.73;;
42168;SDS011;27838;43.858;25.974;2024-02-26T12:08:03;21.13;;;10.88;;
42168;SDS011;27838;43.858;25.974;2024-02-26T12:10:32;24.30;;;11.63;;
42168;SDS011;27838;43.858;25.974;2024-02-26T12:13:06;24.92;;;12.93;;
42168;SDS011;27838;43.858;25.974;2024-02-26T12:15:56;20.58;;;10.60;;
42168;SDS011;27838;43.858;25.974;2024-02-26T12:18:24;16.42;;;8.90;;
42168;SDS011;27838;43.858;25.974;2024-02-26T12:21:03;14.25;;;10.38;;
42168;SDS011;27838;43.858;25.974;2024-02-26T12:23:30;21.73;;;9.15;;
42168;SDS011;27838;43.858;25.974;2024-02-26T12:26:00;17.35;;;9.80;;
42168;SDS011;27838;43.858;25.974;2024-02-26T12:28:30;13.60;;;9.40;;
42168;SDS011;27838;43.858;25.974;2024-02-26T12:30:57;22.20;;;8.95;;
42168;SDS011;27838;43.858;25.974;2024-02-26T12:33:25;20.77;;;9.60;;
42168;SDS011;27838;43.858;25.974;2024-02-26T12:35:53;15.77;;;9.90;;
42168;SDS011;27838;43.858;25.974;2024-02-26T12:38:19;17.48;;;10.60;;
42168;SDS011;27838;43.858;25.974;2024-02-26T12:40:46;19.95;;;9.10;;
42168;SDS011;27838;43.858;25.974;2024-02-26T12:43:14;15.95;;;10.27;;
42168;SDS011;27838;43.858;25.974;2024-02-26T12:45:41;28.75;;;10.98;;
42168;SDS011;27838;43.858;25.974;2024-02-26T12:48:11;20.98;;;10.43;;
42168;SDS011;27838;43.858;25.974;2024-02-26T12:50:39;24.45;;;10.40;;
42168;SDS011;27838;43.858;25.974;2024-02-26T12:53:05;18.20;;;10.32;;
42168;SDS011;27838;43.858;25.974;2024-02-26T12:55:32;20.80;;;9.63;;
42168;SDS011;27838;43.858;25.974;2024-02-26T12:58:01;21.75;;;9.88;;
42168;SDS011;27838;43.858;25.974;2024-02-26T13:00:28;22.95;;;11.50;;
42168;SDS011;27838;43.858;25.974;2024-02-26T13:02:55;28.05;;;15.73;;
42168;SDS011;27838;43.858;25.974;2024-02-26T13:05:22;22.00;;;9.88;;
42168;SDS011;27838;43.858;25.974;2024-02-26T13:07:50;15.52;;;9.13;;
42168;SDS011;27838;43.858;25.974;2024-02-26T13:10:18;18.23;;;9.13;;
42168;SDS011;27838;43.858;25.974;2024-02-26T13:12:49;17.15;;;9.27;;
42168;SDS011;27838;43.858;25.974;2024-02-26T13:15:19;16.37;;;9.60;;
42168;SDS011;27838;43.858;25.974;2024-02-26T13:17:47;23.55;;;9.77;;
42168;SDS011;27838;43.858;25.974;2024-02-26T13:20:27;15.13;;;8.23;;
42168;SDS011;27838;43.858;25.974;2024-02-26T13:23:04;21.42;;;8.63;;
42168;SDS011;27838;43.858;25.974;2024-02-26T13:25:32;26.13;;;9.73;;
42168;SDS011;27838;43.858;25.974;2024-02-26T13:28:07;14.85;;;8.65;;
42168;SDS011;27838;43.858;25.974;2024-02-26T13:30:40;21.20;;;9.07;;
42168;SDS011;27838;43.858;25.974;2024-02-26T13:33:09;17.58;;;8.45;;
42168;SDS011;27838;43.858;25.974;2024-02-26T13:35:36;17.38;;;8.13;;
42168;SDS011;27838;43.858;25.974;2024-02-26T13:38:04;19.42;;;8.60;;
42168;SDS011;27838;43.858;25.974;2024-02-26T13:40:32;14.48;;;8.40;;
42168;SDS011;27838;43.858;25.974;2024-02-26T13:42:59;16.80;;;8.00;;
42168;SDS011;27838;43.858;25.974;2024-02-26T13:45:25;14.48;;;8.48;;
42168;SDS011;27838;43.858;25.974;2024-02-26T13:47:52;30.58;;;16.67;;
42168;SDS011;27838;43.858;25.974;2024-02-26T13:50:19;41.55;;;25.67;;
42168;SDS011;27838;43.858;25.974;2024-02-26T13:52:48;14.98;;;8.43;;
42168;SDS011;27838;43.858;25.974;2024-02-26T13:55:20;45.15;;;31.52;;
42168;SDS011;27838;43.858;25.974;2024-02-26T13:57:49;18.75;;;8.30;;
42168;SDS011;27838;43.858;25.974;2024-02-26T14:00:17;19.70;;;11.07;;
42168;SDS011;27838;43.858;25.974;2024-02-26T14:02:44;17.33;;;12.13;;
42168;SDS011;27838;43.858;25.974;2024-02-26T14:05:10;14.88;;;8.13;;
42168;SDS011;27838;43.858;25.974;2024-02-26T14:07:37;19.70;;;9.18;;
42168;SDS011;27838;43.858;25.974;2024-02-26T14:10:03;22.30;;;8.35;;
42168;SDS011;27838;43.858;25.974;2024-02-26T14:12:30;14.75;;;8.30;;
42168;SDS011;27838;43.858;25.974;2024-02-26T14:14:57;17.95;;;7.93;;
42168;SDS011;27838;43.858;25.974;2024-02-26T14:17:25;17.33;;;7.43;;
42168;SDS011;27838;43.858;25.974;2024-02-26T14:19:52;13.38;;;7.78;;
42168;SDS011;27838;43.858;25.974;2024-02-26T14:22:19;15.65;;;7.65;;